Time;durP1;ratioP1;P1;durP2;ratioP2;P2;SDS_P1;SDS_P2;PMS_P1;PMS_P2;Temp;Humidity;BMP_temperature;BMP_pressure;BME280_temperature;BME280_humidity;BME280_pressure;Samples;Min_cycle;Max_cycle;Signal;HPM_P1;HPM_P2
2022/01/22 00:00:16;;;;;;;16.90;2.63;;;6.80;80.50;;;;;;6276986;22;20327;-78
2022/01/22 00:02:42;;;;;;;18.38;2.50;;;6.80;80.60;;;;;;6249475;22;20099;-79
2022/01/22 00:05:10;;;;;;;20.58;3.17;;;6.80;80.60;;;;;;6276937;22;20055;-79
2022/01/22 00:07:36;;;;;;;17.73;2.80;;;6.80;80.70;;;;;;6276720;22;20078;-79
2022/01/22 00:10:07;;;;;;;15.63;2.65;;;6.80;80.70;;;;;;6276884;22;20012;-78
2022/01/22 00:15:04;;;;;;;11.77;2.42;;;6.80;80.80;;;;;;6276316;22;20073;-78
2022/01/22 00:17:29;;;;;;;14.30;2.22;;;6.80;80.80;;;;;;6277567;22;20019;-78
2022/01/22 00:19:55;;;;;;;23.05;3.67;;;7.00;80.90;;;;;;6277171;22;20439;-78
2022/01/22 00:22:25;;;;;;;15.05;2.88;;;6.80;80.80;;;;;;6276959;22;20358;-78
2022/01/22 00:24:56;;;;;;;15.75;2.63;;;6.80;80.80;;;;;;6248996;22;20089;-79
2022/01/22 00:27:22;;;;;;;15.25;2.45;;;6.80;80.70;;;;;;6277403;22;20079;-78
2022/01/22 00:29:47;;;;;;;15.18;2.17;;;6.80;80.70;;;;;;6276874;22;20344;-78
2022/01/22 00:32:13;;;;;;;12.93;2.88;;;6.90;80.80;;;;;;6249893;22;20343;-79
2022/01/22 00:34:38;;;;;;;23.58;3.17;;;6.90;80.70;;;;;;6276809;22;20027;-78
2022/01/22 00:37:04;;;;;;;20.65;3.22;;;6.90;80.70;;;;;;6249176;22;20016;-78
2022/01/22 00:39:31;;;;;;;20.10;2.72;;;6.90;80.70;;;;;;6249629;22;20020;-79
2022/01/22 00:41:57;;;;;;;12.48;2.65;;;6.90;80.70;;;;;;6249989;22;20058;-79
2022/01/22 00:44:22;;;;;;;16.30;2.67;;;6.90;80.60;;;;;;6277102;22;20011;-79
2022/01/22 00:46:48;;;;;;;13.80;3.05;;;6.90;80.50;;;;;;6249636;22;20019;-79
2022/01/22 00:49:14;;;;;;;18.02;3.15;;;6.90;80.50;;;;;;6250112;22;20137;-78
2022/01/22 00:51:39;;;;;;;16.35;2.78;;;7.00;80.50;;;;;;6251618;22;20019;-78
2022/01/22 00:54:05;;;;;;;16.00;2.13;;;7.00;80.50;;;;;;6278651;22;20020;-78
2022/01/22 00:56:31;;;;;;;14.02;2.50;;;7.00;80.40;;;;;;6278032;22;20019;-79
2022/01/22 00:58:56;;;;;;;15.07;2.17;;;7.00;80.40;;;;;;6278790;22;20379;-78
2022/01/22 01:01:22;;;;;;;13.43;2.25;;;6.90;80.30;;;;;;6278500;22;20070;-78
2022/01/22 01:03:48;;;;;;;12.48;2.13;;;7.00;80.30;;;;;;6275958;22;20015;-79
2022/01/22 01:06:14;;;;;;;13.63;2.08;;;7.00;80.30;;;;;;6278757;22;20492;-78
2022/01/22 01:08:39;;;;;;;14.75;2.67;;;7.00;80.30;;;;;;6277714;22;20039;-78
2022/01/22 01:11:06;;;;;;;17.58;3.10;;;7.00;80.20;;;;;;6278316;22;20016;-78
2022/01/22 01:13:38;;;;;;;12.73;2.00;;;7.00;80.20;;;;;;6251050;22;20020;-78
2022/01/22 01:16:17;;;;;;;12.95;2.17;;;7.00;80.20;;;;;;6246093;23;20016;-79
2022/01/22 01:32:45;;;;;;;15.85;2.38;;;7.00;80.00;;;;;;6278495;22;20020;-78
2022/01/22 01:35:10;;;;;;;15.43;2.30;;;7.10;80.10;;;;;;6277929;22;20023;-78
2022/01/22 01:37:36;;;;;;;15.73;2.97;;;7.40;80.30;;;;;;6276604;22;20033;-78
2022/01/22 01:40:05;;;;;;;15.57;2.97;;;7.10;80.00;;;;;;6278096;22;20090;-78
2022/01/22 01:42:46;;;;;;;13.93;2.80;;;7.10;80.10;;;;;;6278753;22;20015;-79
2022/01/22 01:45:12;;;;;;;14.32;2.28;;;7.10;80.10;;;;;;6278333;22;20008;-78
2022/01/22 01:47:40;;;;;;;12.43;2.42;;;7.10;80.10;;;;;;6278016;22;20327;-78
2022/01/22 01:50:06;;;;;;;13.00;2.47;;;7.10;80.20;;;;;;6277591;22;20011;-79
2022/01/22 01:53:08;;;;;;;15.95;3.20;;;7.10;80.20;;;;;;6278317;22;20101;-79
2022/01/22 01:55:22;;;;;;;12.63;2.40;;;7.10;80.20;;;;;;6277113;22;20035;-78
2022/01/22 01:57:48;;;;;;;12.75;2.60;;;7.10;80.20;;;;;;6278283;22;20057;-78
2022/01/22 02:00:23;;;;;;;13.75;3.03;;;7.10;80.20;;;;;;6278115;22;20091;-78
2022/01/22 02:02:50;;;;;;;13.52;2.72;;;7.10;80.30;;;;;;6278439;22;20012;-78
2022/01/22 02:05:18;;;;;;;14.77;3.00;;;7.10;80.30;;;;;;6277532;22;20023;-79
2022/01/22 02:07:45;;;;;;;12.85;2.30;;;7.10;80.30;;;;;;6278130;22;20019;-78
2022/01/22 02:10:17;;;;;;;12.45;2.72;;;7.10;80.30;;;;;;6277862;22;20039;-78
2022/01/22 02:23:38;;;;;;;13.02;3.20;;;7.20;80.40;;;;;;6277639;22;20024;-79
2022/01/22 02:26:06;;;;;;;11.68;3.00;;;7.10;80.30;;;;;;6277647;22;20008;-78
2022/01/22 02:28:32;;;;;;;13.45;3.50;;;7.20;80.40;;;;;;6277848;22;20443;-79
2022/01/22 02:31:11;;;;;;;10.88;2.55;;;7.20;80.40;;;;;;6277022;22;20133;-78
2022/01/22 02:33:50;;;;;;;11.38;3.47;;;7.20;80.40;;;;;;6277766;22;20022;-79
2022/01/22 02:36:30;;;;;;;13.60;4.00;;;7.10;80.30;;;;;;6277365;22;20043;-78
2022/01/22 02:39:11;;;;;;;10.65;3.13;;;7.20;80.30;;;;;;6277645;22;20110;-79
2022/01/22 02:41:41;;;;;;;10.82;2.95;;;7.20;80.70;;;;;;6275741;22;20020;-78
2022/01/22 02:44:10;;;;;;;14.18;3.63;;;7.10;80.20;;;;;;6277944;22;20018;-78
2022/01/22 02:46:38;;;;;;;11.82;3.58;;;7.20;80.40;;;;;;6276657;22;20384;-79
2022/01/22 02:49:04;;;;;;;12.80;3.97;;;7.20;80.30;;;;;;6277384;22;20016;-78
2022/01/22 02:51:30;;;;;;;10.95;3.38;;;7.20;80.30;;;;;;6277298;22;20022;-78
2022/01/22 02:53:56;;;;;;;10.75;2.10;;;7.20;80.30;;;;;;6277396;22;20031;-78
2022/01/22 02:56:23;;;;;;;7.78;2.03;;;7.20;80.40;;;;;;6277060;22;20023;-78
2022/01/22 02:58:51;;;;;;;9.57;2.05;;;7.20;80.40;;;;;;6277429;22;20016;-78
2022/01/22 03:01:18;;;;;;;8.95;2.40;;;7.20;80.40;;;;;;6277620;22;20386;-78
2022/01/22 03:03:44;;;;;;;8.88;1.80;;;7.10;80.40;;;;;;6277495;22;20055;-77
2022/01/22 03:06:10;;;;;;;12.25;2.08;;;7.10;80.50;;;;;;6277407;22;20515;-78
2022/01/22 03:08:38;;;;;;;7.55;1.58;;;7.60;80.80;;;;;;6276758;22;20043;-79
2022/01/22 03:11:15;;;;;;;14.40;2.28;;;7.10;80.60;;;;;;6277562;22;20022;-79
2022/01/22 03:29:05;;;;;;;4.75;1.27;;;7.20;80.80;;;;;;6279661;22;20030;-79
2022/01/22 03:31:31;;;;;;;6.60;1.40;;;7.10;80.70;;;;;;6279519;22;20025;-79
2022/01/22 03:33:57;;;;;;;5.28;1.38;;;7.10;80.80;;;;;;6278238;22;20038;-78
2022/01/22 03:36:25;;;;;;;5.93;1.17;;;7.10;80.80;;;;;;6276864;22;20023;-78
2022/01/22 03:38:50;;;;;;;4.82;1.15;;;7.10;80.80;;;;;;6276702;22;20027;-79
2022/01/22 03:41:17;;;;;;;5.70;1.10;;;7.20;80.90;;;;;;6277214;22;20316;-79
2022/01/22 03:43:43;;;;;;;5.90;1.27;;;7.60;81.20;;;;;;6277527;22;20093;-79
2022/01/22 03:46:09;;;;;;;5.55;1.00;;;7.20;81.10;;;;;;6277064;22;20331;-79
2022/01/22 03:48:35;;;;;;;3.55;1.00;;;7.20;81.00;;;;;;6277446;22;20039;-79
2022/01/22 03:51:01;;;;;;;6.55;1.00;;;7.10;81.00;;;;;;6275382;22;20023;-79
2022/01/22 03:53:27;;;;;;;3.95;0.80;;;7.10;81.00;;;;;;6277321;22;20420;-79
2022/01/22 03:56:03;;;;;;;4.78;1.00;;;7.50;81.20;;;;;;6277109;22;20016;-79
2022/01/22 03:58:31;;;;;;;4.30;0.85;;;7.10;81.00;;;;;;6277224;22;20111;-78
2022/01/22 04:01:23;;;;;;;3.67;0.70;;;7.20;81.10;;;;;;6276803;22;20319;-79
2022/01/22 04:03:46;;;;;;;5.05;0.82;;;7.10;81.10;;;;;;6276502;22;20074;-78
2022/01/22 04:09:10;;;;;;;3.67;1.00;;;7.10;81.20;;;;;;6183038;23;20539;-78
2022/01/22 04:11:40;;;;;;;5.82;0.90;;;7.10;81.20;;;;;;6183142;23;20021;-79
2022/01/22 04:14:13;;;;;;;5.18;1.08;;;7.10;81.20;;;;;;6183365;23;20096;-79
2022/01/22 04:16:46;;;;;;;5.25;1.08;;;7.10;81.20;;;;;;6183301;23;20017;-78
2022/01/22 04:24:51;;;;;;;5.82;1.10;;;7.10;81.20;;;;;;6184853;23;20020;-78
2022/01/22 04:27:22;;;;;;;4.85;1.30;;;7.10;81.20;;;;;;6185127;23;20056;-79
2022/01/22 04:29:48;;;;;;;5.72;1.85;;;7.10;81.20;;;;;;6185031;23;20017;-78
2022/01/22 04:32:13;;;;;;;7.13;1.35;;;7.10;81.20;;;;;;6160058;23;20121;-79
2022/01/22 04:34:39;;;;;;;6.60;1.90;;;7.10;81.30;;;;;;6185605;23;20484;-79
2022/01/22 04:37:04;;;;;;;6.38;1.35;;;7.10;81.30;;;;;;6184981;23;20097;-78
2022/01/22 04:39:30;;;;;;;5.30;1.30;;;7.10;81.30;;;;;;6159852;23;20028;-79
2022/01/22 04:41:57;;;;;;;7.07;1.48;;;7.10;81.30;;;;;;6185018;23;20401;-79
2022/01/22 04:44:26;;;;;;;6.20;1.80;;;7.10;81.30;;;;;;6184820;23;20128;-78
2022/01/22 04:55:03;;;;;;;6.97;1.52;;;7.10;81.30;;;;;;6278568;22;20019;-79
2022/01/22 04:57:33;;;;;;;7.80;1.50;;;7.10;81.30;;;;;;6278179;22;20016;-78
2022/01/22 04:59:59;;;;;;;6.93;1.73;;;7.10;81.30;;;;;;6279020;22;20012;-78
2022/01/22 05:02:25;;;;;;;8.32;1.60;;;7.10;81.30;;;;;;6278243;22;20026;-79
2022/01/22 05:04:51;;;;;;;6.57;2.03;;;7.10;81.20;;;;;;6278533;22;20098;-79
2022/01/22 05:07:17;;;;;;;8.20;2.20;;;7.10;81.20;;;;;;6278716;22;20016;-79
2022/01/22 05:09:43;;;;;;;5.72;1.65;;;7.10;81.20;;;;;;6278494;22;20019;-79
2022/01/22 05:12:09;;;;;;;7.15;2.33;;;7.20;81.20;;;;;;6278488;22;20083;-79
2022/01/22 05:14:35;;;;;;;7.43;2.13;;;7.10;81.10;;;;;;6277998;22;20045;-79
2022/01/22 05:17:03;;;;;;;6.68;1.65;;;7.10;81.10;;;;;;6278671;22;20090;-79
2022/01/22 05:19:37;;;;;;;6.20;1.90;;;7.10;81.10;;;;;;6276790;22;20030;-79
2022/01/22 05:22:15;;;;;;;10.00;1.95;;;7.10;81.10;;;;;;6278053;22;20018;-79
2022/01/22 05:24:45;;;;;;;9.32;2.55;;;7.10;81.10;;;;;;6278925;22;20026;-79
2022/01/22 05:27:30;;;;;;;6.93;2.50;;;7.10;81.10;;;;;;6278797;22;20115;-79
2022/01/22 05:30:10;;;;;;;8.32;2.67;;;7.00;81.00;;;;;;6278570;22;20313;-79
2022/01/22 05:37:45;;;;;;;10.40;2.50;;;7.10;81.10;;;;;;6278342;22;20061;-79
2022/01/22 05:40:11;;;;;;;8.77;2.45;;;7.10;81.10;;;;;;6278342;22;20051;-79
2022/01/22 05:42:37;;;;;;;8.38;2.80;;;7.00;81.10;;;;;;6278209;22;20015;-79
2022/01/22 05:45:06;;;;;;;11.68;3.65;;;7.00;81.20;;;;;;6278098;22;20016;-79
2022/01/22 05:47:32;;;;;;;10.30;3.15;;;7.10;81.30;;;;;;6278404;22;20095;-78
2022/01/22 05:49:59;;;;;;;7.78;2.75;;;7.00;81.30;;;;;;6278031;22;20050;-79
2022/01/22 05:52:33;;;;;;;5.53;2.30;;;7.10;81.30;;;;;;6278252;22;20016;-79
2022/01/22 06:00:12;;;;;;;6.82;1.98;;;7.10;81.40;;;;;;6278359;22;20087;-79
2022/01/22 06:02:38;;;;;;;4.97;1.60;;;7.10;81.30;;;;;;6276301;22;20344;-79
2022/01/22 06:05:04;;;;;;;11.02;2.63;;;7.10;81.40;;;;;;6278129;22;20016;-78
2022/01/22 06:07:30;;;;;;;4.80;1.52;;;7.10;81.40;;;;;;6278423;22;20339;-79
2022/01/22 06:15:05;;;;;;;6.47;2.20;;;7.10;81.50;;;;;;6277251;22;20534;-79
2022/01/22 06:17:31;;;;;;;5.93;2.30;;;7.10;81.50;;;;;;6277889;22;20055;-79
2022/01/22 06:19:56;;;;;;;7.78;2.80;;;7.10;81.50;;;;;;6278028;22;20023;-79
2022/01/22 06:22:22;;;;;;;5.93;2.33;;;7.10;81.50;;;;;;6277597;22;20493;-79
2022/01/22 06:24:48;;;;;;;6.90;2.42;;;7.10;81.50;;;;;;6277447;22;20057;-79
2022/01/22 06:27:14;;;;;;;6.90;2.33;;;7.10;81.50;;;;;;6278053;22;20094;-79
2022/01/22 06:29:39;;;;;;;7.55;2.40;;;7.10;81.50;;;;;;6277692;22;20007;-79
2022/01/22 06:32:05;;;;;;;8.07;2.35;;;7.10;81.50;;;;;;6277356;22;20018;-79
2022/01/22 06:34:31;;;;;;;6.47;2.00;;;7.10;81.50;;;;;;6277741;22;20374;-79
2022/01/22 06:36:57;;;;;;;7.90;2.40;;;7.10;81.50;;;;;;6277893;22;20023;-79
2022/01/22 06:39:23;;;;;;;8.07;2.33;;;7.10;81.60;;;;;;6277192;22;20008;-79
2022/01/22 06:41:49;;;;;;;12.80;3.13;;;7.10;81.60;;;;;;6277486;22;20784;-79
2022/01/22 06:44:19;;;;;;;7.47;1.98;;;7.10;81.60;;;;;;6275600;22;20011;-79
2022/01/22 06:46:48;;;;;;;7.70;2.22;;;7.10;81.60;;;;;;6277931;22;20021;-79
2022/01/22 06:49:14;;;;;;;5.63;1.92;;;7.10;81.60;;;;;;6277893;22;20450;-79
2022/01/22 06:51:40;;;;;;;5.78;1.88;;;7.10;81.60;;;;;;6277748;22;20019;-79
2022/01/22 06:54:08;;;;;;;5.22;1.92;;;7.10;81.60;;;;;;6277068;22;20024;-79
2022/01/22 06:56:34;;;;;;;8.73;2.58;;;7.30;81.70;;;;;;6277507;22;20022;-79
2022/01/22 06:59:00;;;;;;;4.65;1.73;;;7.10;81.50;;;;;;6277558;22;20023;-79
2022/01/22 07:01:26;;;;;;;7.35;2.08;;;7.10;81.50;;;;;;6277819;22;20016;-79
2022/01/22 07:03:53;;;;;;;8.23;1.85;;;7.10;81.50;;;;;;6249946;22;20099;-79
2022/01/22 07:06:20;;;;;;;8.73;2.05;;;7.00;81.50;;;;;;6277803;22;20016;-79
2022/01/22 07:08:45;;;;;;;6.13;1.60;;;7.10;81.50;;;;;;6277084;22;20012;-79
2022/01/22 07:11:12;;;;;;;3.90;1.60;;;7.10;81.50;;;;;;6275815;22;20062;-79
2022/01/22 07:13:37;;;;;;;4.28;1.40;;;7.50;81.70;;;;;;6276958;22;20011;-79
2022/01/22 07:16:04;;;;;;;4.95;1.27;;;7.00;81.30;;;;;;6277283;22;20061;-80
2022/01/22 07:18:30;;;;;;;5.90;1.67;;;7.00;81.30;;;;;;6277051;22;20031;-79
2022/01/22 07:20:56;;;;;;;3.83;1.65;;;7.00;81.20;;;;;;6277820;22;20016;-79
2022/01/22 07:26:01;;;;;;;4.70;1.85;;;7.00;81.10;;;;;;6277154;22;20065;-80
2022/01/22 07:28:26;;;;;;;6.47;2.22;;;7.00;81.10;;;;;;6275726;22;20050;-79
2022/01/22 07:30:52;;;;;;;3.92;1.33;;;7.00;81.00;;;;;;6277572;22;20017;-79
2022/01/22 07:33:20;;;;;;;6.47;1.42;;;7.00;81.00;;;;;;6276721;22;20020;-79
2022/01/22 07:35:46;;;;;;;5.93;1.20;;;7.00;80.90;;;;;;6277405;22;20054;-79
2022/01/22 07:38:12;;;;;;;5.90;1.30;;;6.90;80.80;;;;;;6300884;22;20371;-80
2022/01/22 07:40:39;;;;;;;7.75;1.30;;;7.00;80.90;;;;;;6276893;22;20070;-79
2022/01/22 07:43:05;;;;;;;5.90;1.20;;;7.00;80.90;;;;;;6277595;22;20046;-79
2022/01/22 07:45:31;;;;;;;5.18;1.08;;;7.00;80.90;;;;;;6277350;22;20023;-79
2022/01/22 07:47:57;;;;;;;5.10;1.23;;;7.00;80.80;;;;;;6277545;22;20442;-80
2022/01/22 07:50:22;;;;;;;4.50;1.08;;;7.00;81.20;;;;;;6277477;22;20027;-80
2022/01/22 07:52:48;;;;;;;4.47;1.27;;;7.00;80.80;;;;;;6277785;22;20015;-79
2022/01/22 07:55:16;;;;;;;2.72;1.10;;;7.00;80.80;;;;;;6276951;22;20435;-79
2022/01/22 07:57:44;;;;;;;3.42;1.17;;;7.00;80.80;;;;;;6277470;22;20008;-80
2022/01/22 08:00:11;;;;;;;4.05;1.40;;;7.00;81.20;;;;;;6279201;22;20016;-79
2022/01/22 08:02:37;;;;;;;2.90;1.20;;;7.00;80.80;;;;;;6282774;22;20016;-79
2022/01/22 08:05:03;;;;;;;5.45;1.30;;;7.20;80.90;;;;;;6283558;22;20011;-79
2022/01/22 08:07:29;;;;;;;6.55;1.30;;;7.00;80.80;;;;;;6282209;22;20022;-77
2022/01/22 08:09:55;;;;;;;5.15;1.33;;;7.00;80.80;;;;;;6280980;22;20016;-79
2022/01/22 08:12:21;;;;;;;2.95;1.10;;;7.00;80.80;;;;;;6279224;22;20046;-79
2022/01/22 08:14:46;;;;;;;6.15;1.58;;;7.00;80.80;;;;;;6278846;22;20020;-79
2022/01/22 08:17:12;;;;;;;4.65;1.35;;;7.00;80.90;;;;;;6279499;22;20324;-80
2022/01/22 08:19:38;;;;;;;4.88;1.80;;;7.00;80.90;;;;;;6279178;22;20344;-79
2022/01/22 08:22:04;;;;;;;6.50;1.50;;;7.00;80.90;;;;;;6279328;22;20016;-78
2022/01/22 08:24:29;;;;;;;7.50;1.63;;;7.00;80.90;;;;;;6276560;22;20012;-79
2022/01/22 08:27:18;;;;;;;6.80;1.77;;;7.00;80.90;;;;;;6278991;22;20367;-79
2022/01/22 08:29:44;;;;;;;5.63;2.00;;;7.00;80.90;;;;;;6279266;22;20018;-81
2022/01/22 08:37:24;;;;;;;6.88;2.17;;;7.10;81.00;;;;;;6278623;22;20020;-78
2022/01/22 08:39:50;;;;;;;6.95;2.10;;;7.00;80.90;;;;;;6278660;22;20102;-78
2022/01/22 08:42:15;;;;;;;6.75;2.03;;;7.00;80.90;;;;;;6276752;22;20019;-79
2022/01/22 08:44:41;;;;;;;4.90;1.92;;;7.00;80.90;;;;;;6278492;22;20031;-79
2022/01/22 08:47:07;;;;;;;6.10;2.05;;;7.10;81.00;;;;;;6277229;22;20130;-80
2022/01/22 08:49:33;;;;;;;9.27;2.50;;;7.10;81.00;;;;;;6278919;22;20043;-79
2022/01/22 08:52:00;;;;;;;6.90;2.65;;;7.10;81.00;;;;;;6278849;22;20301;-79
2022/01/22 08:54:26;;;;;;;5.68;2.60;;;7.10;81.00;;;;;;6278307;22;20016;-79
2022/01/22 08:56:52;;;;;;;9.25;2.35;;;7.10;81.00;;;;;;6278212;22;20047;-79
2022/01/22 08:59:17;;;;;;;6.18;2.30;;;7.20;81.00;;;;;;6276701;22;20023;-78
2022/01/22 09:01:46;;;;;;;7.22;2.30;;;7.10;81.00;;;;;;6277136;22;20103;-79
2022/01/22 09:04:13;;;;;;;7.20;2.25;;;7.10;81.00;;;;;;6276919;22;20091;-78
2022/01/22 09:06:38;;;;;;;7.90;2.53;;;7.10;81.00;;;;;;6278851;22;20016;-79
2022/01/22 09:09:10;;;;;;;6.75;2.00;;;7.10;81.00;;;;;;6277588;22;20312;-79
2022/01/22 09:11:38;;;;;;;5.18;1.70;;;7.20;81.00;;;;;;6278044;22;20016;-80
2022/01/22 09:14:05;;;;;;;14.48;2.33;;;7.10;81.00;;;;;;6278868;22;20012;-78
2022/01/22 09:16:32;;;;;;;6.75;2.00;;;7.20;81.00;;;;;;6276651;22;20443;-79
2022/01/22 09:19:05;;;;;;;8.77;2.22;;;7.20;81.00;;;;;;6278719;22;20028;-79
2022/01/22 09:21:40;;;;;;;14.35;2.92;;;7.20;81.00;;;;;;6275740;22;20016;-79
2022/01/22 09:24:06;;;;;;;11.13;2.97;;;7.20;81.00;;;;;;6278509;22;20011;-79
2022/01/22 09:26:32;;;;;;;11.82;3.22;;;7.20;81.00;;;;;;6278129;22;20105;-79
2022/01/22 09:29:00;;;;;;;10.43;2.75;;;7.20;81.00;;;;;;6278412;22;20019;-80
2022/01/22 09:31:27;;;;;;;11.88;3.28;;;7.20;81.00;;;;;;6278518;22;20081;-79
2022/01/22 09:33:56;;;;;;;10.95;2.92;;;7.60;81.20;;;;;;6278851;22;20374;-85
2022/01/22 09:36:22;;;;;;;12.60;3.28;;;7.20;80.90;;;;;;6276835;22;20366;-84
2022/01/22 09:38:47;;;;;;;7.32;2.38;;;7.20;80.90;;;;;;6278867;22;20054;-85
2022/01/22 09:41:17;;;;;;;7.75;2.22;;;7.20;80.90;;;;;;6276746;22;20323;-84
2022/01/22 09:43:44;;;;;;;5.45;2.22;;;7.20;80.90;;;;;;6277608;22;20444;-85
2022/01/22 09:46:10;;;;;;;9.15;2.55;;;7.20;80.80;;;;;;6277222;22;20027;-85
2022/01/22 09:48:40;;;;;;;13.85;3.72;;;7.20;80.80;;;;;;6277034;22;20008;-84
2022/01/22 09:51:06;;;;;;;13.38;2.83;;;7.30;80.90;;;;;;6278207;22;20015;-82
2022/01/22 09:53:31;;;;;;;12.25;3.20;;;7.20;80.80;;;;;;6276055;22;20011;-82
2022/01/22 09:55:57;;;;;;;12.80;3.00;;;7.30;80.90;;;;;;6276236;22;20016;-83
2022/01/22 09:58:24;;;;;;;12.07;2.90;;;7.30;80.90;;;;;;6250997;22;20015;-80
2022/01/22 10:00:50;;;;;;;9.38;2.83;;;7.30;80.90;;;;;;6277495;22;20024;-83
2022/01/22 10:03:19;;;;;;;12.50;2.85;;;7.80;81.20;;;;;;6277617;22;20102;-82
2022/01/22 10:05:45;;;;;;;14.23;3.72;;;7.30;80.80;;;;;;6275653;22;20027;-83
2022/01/22 10:08:28;;;;;;;10.75;3.20;;;7.30;80.80;;;;;;6277829;22;20012;-84
2022/01/22 10:10:56;;;;;;;9.18;2.80;;;7.30;80.90;;;;;;6275894;22;20094;-83
2022/01/22 10:13:44;;;;;;;11.25;2.90;;;7.60;81.10;;;;;;6277334;22;20020;-83
2022/01/22 10:16:13;;;;;;;8.25;2.95;;;7.10;80.80;;;;;;6277364;22;20440;-83
2022/01/22 10:18:39;;;;;;;7.15;2.60;;;7.80;81.30;;;;;;6276554;22;20026;-83
2022/01/22 10:21:10;;;;;;;9.80;2.78;;;7.40;81.00;;;;;;6277646;22;20455;-84
2022/01/22 10:23:39;;;;;;;8.55;2.75;;;7.60;81.20;;;;;;6278245;22;20051;-82
2022/01/22 10:26:08;;;;;;;8.95;2.83;;;7.40;81.10;;;;;;6275046;22;20763;-83
2022/01/22 10:29:00;;;;;;;8.88;3.20;;;7.40;81.10;;;;;;6274569;22;20093;-82
2022/01/22 10:31:41;;;;;;;10.23;2.88;;;7.40;81.10;;;;;;6275783;22;20045;-81
2022/01/22 10:34:11;;;;;;;13.30;4.00;;;7.40;81.50;;;;;;6277325;22;20432;-82
2022/01/22 10:36:37;;;;;;;10.85;3.42;;;7.40;81.00;;;;;;6275242;22;20372;-81
2022/01/22 10:39:10;;;;;;;7.47;2.80;;;7.80;81.20;;;;;;6277569;22;20039;-81
2022/01/22 10:41:42;;;;;;;10.45;3.22;;;7.50;81.00;;;;;;6275482;22;20034;-82
2022/01/22 10:44:21;;;;;;;11.90;3.28;;;7.50;81.00;;;;;;6275403;22;20343;-83
2022/01/22 10:47:02;;;;;;;10.35;3.30;;;8.00;81.70;;;;;;6277416;22;20401;-83
2022/01/22 10:49:27;;;;;;;5.80;2.60;;;7.60;81.30;;;;;;6274788;22;20016;-83
2022/01/22 10:51:55;;;;;;;10.60;2.50;;;7.60;80.80;;;;;;6277486;22;20039;-84
2022/01/22 10:54:26;;;;;;;6.95;2.70;;;7.60;80.70;;;;;;6276341;22;20102;-83
2022/01/22 10:56:52;;;;;;;9.10;2.75;;;7.60;80.70;;;;;;6275497;22;20030;-83
2022/01/22 10:59:20;;;;;;;9.88;2.53;;;7.90;80.80;;;;;;6249111;22;20023;-84
2022/01/22 11:01:52;;;;;;;8.63;2.63;;;7.60;80.60;;;;;;6275471;22;20439;-85
2022/01/22 11:04:26;;;;;;;8.55;2.92;;;7.90;80.80;;;;;;6277271;22;20057;-83
2022/01/22 11:07:00;;;;;;;14.52;3.30;;;7.70;80.60;;;;;;6275524;22;20316;-83
2022/01/22 11:09:29;;;;;;;6.80;3.13;;;7.70;80.60;;;;;;6275744;22;20023;-83
2022/01/22 11:11:55;;;;;;;11.40;4.65;;;7.70;80.50;;;;;;6276525;22;20019;-83
2022/01/22 11:14:21;;;;;;;9.32;4.63;;;7.70;80.40;;;;;;6275221;22;20028;-83
2022/01/22 11:16:49;;;;;;;15.55;4.10;;;7.70;80.40;;;;;;6276034;22;20027;-83
2022/01/22 11:19:21;;;;;;;12.52;4.00;;;7.70;80.30;;;;;;6275506;22;20028;-82
2022/01/22 11:21:52;;;;;;;14.25;4.45;;;7.70;80.20;;;;;;6249794;22;20054;-83
2022/01/22 11:24:23;;;;;;;14.52;5.20;;;7.70;80.20;;;;;;6276333;22;20019;-83
2022/01/22 11:26:54;;;;;;;12.25;4.05;;;7.90;80.30;;;;;;6274808;22;20335;-81
2022/01/22 11:29:24;;;;;;;12.93;4.10;;;8.10;80.40;;;;;;6275402;22;20037;-86
2022/01/22 11:31:51;;;;;;;76.90;12.52;;;7.70;80.00;;;;;;6275530;22;20020;-84
2022/01/22 11:34:23;;;;;;;11.77;4.32;;;7.80;80.00;;;;;;6274806;22;20019;-84
2022/01/22 11:37:06;;;;;;;14.85;4.05;;;7.80;80.00;;;;;;6277529;22;20015;-85
2022/01/22 11:39:33;;;;;;;17.10;4.80;;;7.80;80.00;;;;;;6275546;22;20027;-84
2022/01/22 11:41:59;;;;;;;14.80;4.22;;;7.80;80.00;;;;;;6277303;22;20012;-84
2022/01/22 11:44:47;;;;;;;13.65;3.80;;;7.80;80.00;;;;;;6250121;22;20014;-84
2022/01/22 11:47:24;;;;;;;11.73;3.85;;;7.70;79.90;;;;;;6277130;22;20019;-84
2022/01/22 11:50:07;;;;;;;9.60;3.33;;;7.80;79.90;;;;;;6275565;22;20020;-85
2022/01/22 11:52:41;;;;;;;10.15;3.25;;;7.70;79.80;;;;;;6275778;22;20047;-86
2022/01/22 11:55:16;;;;;;;9.43;2.80;;;7.70;79.80;;;;;;6249910;22;20011;-85
2022/01/22 11:57:43;;;;;;;10.07;3.30;;;7.80;79.90;;;;;;6274783;22;20019;-84
2022/01/22 12:00:18;;;;;;;11.55;3.72;;;7.80;79.90;;;;;;6277447;22;20015;-84
2022/01/22 12:02:43;;;;;;;15.30;3.38;;;7.70;79.80;;;;;;6275402;22;20474;-85
2022/01/22 12:05:09;;;;;;;8.98;2.67;;;7.70;79.80;;;;;;6275158;22;20011;-84
2022/01/22 12:07:36;;;;;;;8.70;3.05;;;7.70;79.80;;;;;;6275150;22;20027;-84
2022/01/22 12:10:18;;;;;;;10.32;2.92;;;7.80;79.80;;;;;;6249469;22;20091;-85
2022/01/22 12:15:31;;;;;;;8.52;2.63;;;7.90;79.80;;;;;;6274882;22;20027;-84
2022/01/22 12:18:11;;;;;;;8.60;2.78;;;7.80;79.80;;;;;;6277772;22;20027;-85
2022/01/22 12:23:12;;;;;;;5.32;1.88;;;8.20;80.00;;;;;;6275476;22;20398;-85
2022/01/22 12:25:37;;;;;;;10.13;3.10;;;7.80;79.70;;;;;;6275631;22;20018;-85
2022/01/22 12:28:11;;;;;;;10.57;3.28;;;7.70;79.60;;;;;;6275760;22;20090;-85
2022/01/22 12:30:44;;;;;;;9.65;3.10;;;7.80;79.70;;;;;;6275144;22;20069;-85
2022/01/22 12:33:15;;;;;;;6.40;2.20;;;7.80;79.70;;;;;;6277585;22;20439;-85
2022/01/22 12:35:46;;;;;;;12.40;3.30;;;7.80;79.60;;;;;;6258588;22;20047;-86
2022/01/22 12:38:36;;;;;;;12.68;3.47;;;7.80;79.60;;;;;;6297243;22;20020;-86
2022/01/22 12:46:49;;;;;;;6.15;2.55;;;7.80;79.60;;;;;;6299450;22;20024;-85
2022/01/22 12:49:16;;;;;;;7.47;1.90;;;8.30;79.90;;;;;;6285073;22;20026;-85
2022/01/22 12:51:42;;;;;;;5.43;1.85;;;7.80;79.60;;;;;;6281765;22;20015;-85
2022/01/22 12:54:08;;;;;;;10.02;1.95;;;8.00;79.60;;;;;;6291171;22;20030;-85
2022/01/22 12:59:07;;;;;;;11.25;2.22;;;7.90;79.40;;;;;;6278394;22;20023;-86
2022/01/22 13:01:35;;;;;;;6.43;1.92;;;8.60;79.80;;;;;;6252343;22;20022;-84
2022/01/22 13:04:04;;;;;;;11.23;2.35;;;7.80;79.20;;;;;;6303286;22;20014;-85
2022/01/22 13:06:46;;;;;;;8.32;2.20;;;8.20;79.50;;;;;;6277644;22;20047;-85
2022/01/22 13:09:13;;;;;;;8.60;2.03;;;7.90;79.20;;;;;;6277366;22;20095;-86
2022/01/22 13:11:49;;;;;;;8.57;1.95;;;8.20;79.40;;;;;;6277473;22;20020;-86
2022/01/22 13:14:27;;;;;;;9.70;2.20;;;8.20;79.40;;;;;;6251911;22;20041;-86
2022/01/22 13:16:54;;;;;;;6.13;1.90;;;7.90;79.20;;;;;;6277042;22;20020;-86
2022/01/22 13:19:21;;;;;;;8.45;1.88;;;7.80;79.40;;;;;;6251506;22;20020;-84
2022/01/22 13:21:52;;;;;;;9.95;1.92;;;7.90;79.10;;;;;;6279356;22;20085;-85
2022/01/22 13:24:25;;;;;;;11.88;2.97;;;7.90;79.10;;;;;;6279320;22;20022;-85
2022/01/22 13:27:15;;;;;;;5.70;2.53;;;8.30;79.30;;;;;;6277494;22;20355;-86
2022/01/22 13:29:44;;;;;;;9.75;1.58;;;7.80;79.10;;;;;;6277809;22;20019;-85
2022/01/22 13:32:23;;;;;;;10.15;2.17;;;7.80;79.10;;;;;;6277735;22;20095;-86
2022/01/22 13:38:29;;;;;;;5.97;1.50;;;7.80;79.10;;;;;;6191064;23;20023;-86
2022/01/22 13:49:27;;;;;;;6.35;1.27;;;8.10;79.10;;;;;;6194307;23;20031;-87
2022/01/22 13:51:55;;;;;;;8.73;1.85;;;7.80;79.00;;;;;;6165489;23;20047;-86
2022/01/22 13:54:36;;;;;;;9.88;2.60;;;8.00;79.10;;;;;;6165094;23;20028;-87
2022/01/22 13:57:09;;;;;;;6.82;1.60;;;8.10;79.10;;;;;;6189819;23;20491;-86
2022/01/22 13:59:42;;;;;;;6.20;1.50;;;7.70;78.90;;;;;;6215629;23;20100;-87
2022/01/22 14:02:48;;;;;;;10.77;1.70;;;7.70;78.90;;;;;;6165460;23;20016;-86
2022/01/22 14:05:14;;;;;;;9.13;1.25;;;7.80;79.00;;;;;;6160008;23;20353;-86
2022/01/22 14:07:46;;;;;;;9.75;1.60;;;8.00;79.10;;;;;;6159139;23;20024;-87
2022/01/22 14:10:11;;;;;;;5.60;1.30;;;7.70;78.90;;;;;;6159779;23;20024;-85
2022/01/22 14:15:43;;;;;;;21.33;8.30;;;7.70;79.00;;;;;;6184408;23;20140;-78
2022/01/22 14:18:15;;;;;;;22.90;8.75;;;7.70;78.90;;;;;;6183965;23;20017;-78
2022/01/22 14:20:55;;;;;;;25.17;9.55;;;7.70;78.70;;;;;;6184492;23;20024;-78
2022/01/22 14:23:23;;;;;;;10.70;4.25;;;7.70;78.60;;;;;;6184376;23;20028;-78
2022/01/22 14:25:56;;;;;;;17.80;6.65;;;7.70;78.60;;;;;;6159452;23;20024;-78
2022/01/22 14:28:43;;;;;;;10.20;2.33;;;7.80;78.60;;;;;;6184161;23;20017;-79
2022/01/22 14:31:26;;;;;;;10.13;2.03;;;7.70;78.50;;;;;;6183549;23;20449;-79
2022/01/22 14:33:54;;;;;;;6.25;2.35;;;7.80;78.50;;;;;;6184224;23;20064;-76
2022/01/22 14:36:23;;;;;;;8.07;2.72;;;7.70;78.20;;;;;;6159175;23;20367;-78
2022/01/22 14:38:58;;;;;;;13.18;2.88;;;7.80;78.30;;;;;;6184001;23;20085;-78
2022/01/22 14:46:56;;;;;;;6.70;1.40;;;7.80;78.00;;;;;;6184041;23;20465;-79
2022/01/22 14:49:43;;;;;;;12.17;3.43;;;7.90;77.90;;;;;;6159286;23;20104;-78
2022/01/22 14:52:10;;;;;;;10.60;3.22;;;8.00;77.80;;;;;;6196046;22;20371;-78
2022/01/22 14:54:42;;;;;;;6.22;1.10;;;7.80;77.60;;;;;;6275641;22;20051;-78
2022/01/22 14:57:09;;;;;;;5.55;1.00;;;7.80;77.60;;;;;;6276171;22;20435;-78
2022/01/22 14:59:37;;;;;;;5.78;1.70;;;7.80;77.50;;;;;;6277355;22;20490;-78